sensor_id;sensor_type;location;lat;lon;timestamp;P1;durP1;ratioP1;P2;durP2;ratioP2
50689;SDS011;71367;48.298;11.238;2024-02-23T00:13:38;0.30;;;0.30;;
50689;SDS011;71367;48.298;11.238;2024-02-23T00:28:43;0.20;;;0.20;;
50689;SDS011;71367;48.298;11.238;2024-02-23T00:43:46;1.38;;;0.30;;
50689;SDS011;71367;48.298;11.238;2024-02-23T00:58:50;1.20;;;0.40;;
50689;SDS011;71367;48.298;11.238;2024-02-23T01:13:53;1.30;;;0.40;;
50689;SDS011;71367;48.298;11.238;2024-02-23T01:28:56;1.08;;;0.60;;
50689;SDS011;71367;48.298;11.238;2024-02-23T01:43:59;1.85;;;0.55;;
50689;SDS011;71367;48.298;11.238;2024-02-23T01:59:03;0.63;;;0.50;;
50689;SDS011;71367;48.298;11.238;2024-02-23T02:14:07;1.50;;;0.45;;
50689;SDS011;71367;48.298;11.238;2024-02-23T02:29:12;1.65;;;0.40;;
50689;SDS011;71367;48.298;11.238;2024-02-23T02:44:16;0.75;;;0.45;;
50689;SDS011;71367;48.298;11.238;2024-02-23T02:59:19;0.30;;;0.30;;
50689;SDS011;71367;48.298;11.238;2024-02-23T03:14:23;0.32;;;0.32;;
50689;SDS011;71367;48.298;11.238;2024-02-23T03:29:26;0.88;;;0.47;;
50689;SDS011;71367;48.298;11.238;2024-02-23T03:44:30;0.40;;;0.30;;
50689;SDS011;71367;48.298;11.238;2024-02-23T03:59:35;0.32;;;0.32;;
50689;SDS011;71367;48.298;11.238;2024-02-23T04:14:39;0.30;;;0.30;;
50689;SDS011;71367;48.298;11.238;2024-02-23T04:29:42;0.82;;;0.40;;
50689;SDS011;71367;48.298;11.238;2024-02-23T04:44:45;1.50;;;0.85;;
50689;SDS011;71367;48.298;11.238;2024-02-23T04:59:50;0.40;;;0.40;;
50689;SDS011;71367;48.298;11.238;2024-02-23T05:14:54;0.65;;;0.30;;
50689;SDS011;71367;48.298;11.238;2024-02-23T05:29:57;1.15;;;0.50;;
50689;SDS011;71367;48.298;11.238;2024-02-23T05:45:00;1.23;;;0.40;;
50689;SDS011;71367;48.298;11.238;2024-02-23T06:00:06;0.90;;;0.43;;
50689;SDS011;71367;48.298;11.238;2024-02-23T06:15:14;0.75;;;0.70;;
50689;SDS011;71367;48.298;11.238;2024-02-23T06:30:20;0.80;;;0.60;;
50689;SDS011;71367;48.298;11.238;2024-02-23T06:45:55;1.15;;;0.70;;
50689;SDS011;71367;48.298;11.238;2024-02-23T07:01:33;0.82;;;0.70;;
50689;SDS011;71367;48.298;11.238;2024-02-23T07:17:32;0.63;;;0.60;;
50689;SDS011;71367;48.298;11.238;2024-02-23T07:33:59;1.43;;;0.70;;
50689;SDS011;71367;48.298;11.238;2024-02-23T08:40:12;2.27;;;0.67;;
50689;SDS011;71367;48.298;11.238;2024-02-23T08:55:26;2.65;;;0.90;;
50689;SDS011;71367;48.298;11.238;2024-02-23T09:10:56;2.33;;;1.10;;
50689;SDS011;71367;48.298;11.238;2024-02-23T09:26:00;2.42;;;0.95;;
50689;SDS011;71367;48.298;11.238;2024-02-23T09:41:04;2.95;;;1.10;;
50689;SDS011;71367;48.298;11.238;2024-02-23T09:56:10;2.10;;;1.17;;
50689;SDS011;71367;48.298;11.238;2024-02-23T10:11:13;2.60;;;1.10;;
50689;SDS011;71367;48.298;11.238;2024-02-23T10:26:20;1.95;;;0.90;;
50689;SDS011;71367;48.298;11.238;2024-02-23T10:41:25;2.72;;;0.90;;
50689;SDS011;71367;48.298;11.238;2024-02-23T10:56:30;3.63;;;1.52;;
50689;SDS011;71367;48.298;11.238;2024-02-23T11:11:34;4.50;;;1.30;;
50689;SDS011;71367;48.298;11.238;2024-02-23T11:26:39;3.25;;;1.00;;
50689;SDS011;71367;48.298;11.238;2024-02-23T11:41:43;7.25;;;1.40;;
50689;SDS011;71367;48.298;11.238;2024-02-23T11:56:47;2.25;;;0.80;;
50689;SDS011;71367;48.298;11.238;2024-02-23T12:11:51;2.78;;;0.90;;
50689;SDS011;71367;48.298;11.238;2024-02-23T12:26:54;3.33;;;0.93;;
50689;SDS011;71367;48.298;11.238;2024-02-23T12:42:11;2.13;;;0.52;;
50689;SDS011;71367;48.298;11.238;2024-02-23T12:57:42;0.73;;;0.60;;
50689;SDS011;71367;48.298;11.238;2024-02-23T13:13:19;0.55;;;0.50;;
50689;SDS011;71367;48.298;11.238;2024-02-23T13:44:45;1.95;;;0.50;;
50689;SDS011;71367;48.298;11.238;2024-02-23T14:15:25;0.57;;;0.57;;
50689;SDS011;71367;48.298;11.238;2024-02-23T15:34:56;1.02;;;0.60;;
50689;SDS011;71367;48.298;11.238;2024-02-23T15:50:13;1.02;;;0.60;;
50689;SDS011;71367;48.298;11.238;2024-02-23T16:05:52;1.23;;;0.70;;
50689;SDS011;71367;48.298;11.238;2024-02-23T16:21:22;2.47;;;1.65;;
50689;SDS011;71367;48.298;11.238;2024-02-23T16:36:49;6.80;;;2.78;;
50689;SDS011;71367;48.298;11.238;2024-02-23T16:51:57;5.20;;;1.02;;
50689;SDS011;71367;48.298;11.238;2024-02-23T17:07:02;2.00;;;1.33;;
50689;SDS011;71367;48.298;11.238;2024-02-23T17:22:12;2.00;;;0.90;;
50689;SDS011;71367;48.298;11.238;2024-02-23T17:37:15;1.08;;;0.82;;
50689;SDS011;71367;48.298;11.238;2024-02-23T17:52:19;1.63;;;0.80;;
50689;SDS011;71367;48.298;11.238;2024-02-23T18:07:30;6.95;;;3.40;;
50689;SDS011;71367;48.298;11.238;2024-02-23T18:22:59;2.22;;;1.05;;
50689;SDS011;71367;48.298;11.238;2024-02-23T18:38:04;2.47;;;1.20;;
50689;SDS011;71367;48.298;11.238;2024-02-23T18:53:33;1.73;;;0.80;;
50689;SDS011;71367;48.298;11.238;2024-02-23T19:08:40;1.85;;;1.10;;
50689;SDS011;71367;48.298;11.238;2024-02-23T19:23:44;2.63;;;1.20;;
50689;SDS011;71367;48.298;11.238;2024-02-23T19:38:47;1.95;;;1.00;;
50689;SDS011;71367;48.298;11.238;2024-02-23T19:53:52;3.22;;;1.30;;
50689;SDS011;71367;48.298;11.238;2024-02-23T20:08:59;2.17;;;1.17;;
50689;SDS011;71367;48.298;11.238;2024-02-23T20:24:08;2.80;;;1.40;;
50689;SDS011;71367;48.298;11.238;2024-02-23T20:39:12;2.25;;;1.50;;
50689;SDS011;71367;48.298;11.238;2024-02-23T20:54:20;4.72;;;2.40;;
50689;SDS011;71367;48.298;11.238;2024-02-23T21:09:24;4.68;;;2.22;;
50689;SDS011;71367;48.298;11.238;2024-02-23T21:24:29;14.15;;;3.55;;
50689;SDS011;71367;48.298;11.238;2024-02-23T21:39:34;12.55;;;5.80;;
50689;SDS011;71367;48.298;11.238;2024-02-23T21:54:39;11.27;;;3.70;;
50689;SDS011;71367;48.298;11.238;2024-02-23T22:09:44;6.95;;;2.83;;
50689;SDS011;71367;48.298;11.238;2024-02-23T22:24:57;6.80;;;2.97;;
50689;SDS011;71367;48.298;11.238;2024-02-23T22:40:14;5.15;;;2.20;;
50689;SDS011;71367;48.298;11.238;2024-02-23T22:55:43;7.10;;;3.55;;
50689;SDS011;71367;48.298;11.238;2024-02-23T23:10:50;5.03;;;2.88;;
50689;SDS011;71367;48.298;11.238;2024-02-23T23:25:54;5.10;;;2.70;;
50689;SDS011;71367;48.298;11.238;2024-02-23T23:40:59;8.82;;;3.92;;
50689;SDS011;71367;48.298;11.238;2024-02-23T23:56:29;9.18;;;3.55;;
